sensor_id;sensor_type;location;lat;lon;timestamp;temperature;humidity
11423;DHT22;5768;51.476;7.210;2023-03-11T00:02:19;1.80;99.90
11423;DHT22;5768;51.476;7.210;2023-03-11T00:07:22;2.00;99.90
11423;DHT22;5768;51.476;7.210;2023-03-11T00:12:24;1.90;99.90
11423;DHT22;5768;51.476;7.210;2023-03-11T00:17:28;1.90;99.90
11423;DHT22;5768;51.476;7.210;2023-03-11T00:22:30;2.00;99.90
11423;DHT22;5768;51.476;7.210;2023-03-11T00:27:32;2.00;99.90
11423;DHT22;5768;51.476;7.210;2023-03-11T00:32:38;2.10;95.70
11423;DHT22;5768;51.476;7.210;2023-03-11T00:37:40;2.20;92.90
11423;DHT22;5768;51.476;7.210;2023-03-11T00:42:43;2.50;87.50
11423;DHT22;5768;51.476;7.210;2023-03-11T00:47:46;2.30;88.80
11423;DHT22;5768;51.476;7.210;2023-03-11T00:52:50;2.40;87.40
11423;DHT22;5768;51.476;7.210;2023-03-11T00:57:53;2.30;84.80
11423;DHT22;5768;51.476;7.210;2023-03-11T01:02:58;2.60;85.00
11423;DHT22;5768;51.476;7.210;2023-03-11T01:08:01;2.40;84.50
11423;DHT22;5768;51.476;7.210;2023-03-11T01:13:04;2.50;84.30
11423;DHT22;5768;51.476;7.210;2023-03-11T01:18:08;2.50;84.60
11423;DHT22;5768;51.476;7.210;2023-03-11T01:23:11;2.50;82.40
11423;DHT22;5768;51.476;7.210;2023-03-11T01:28:14;2.40;83.10
11423;DHT22;5768;51.476;7.210;2023-03-11T01:33:18;2.50;81.40
11423;DHT22;5768;51.476;7.210;2023-03-11T01:38:20;2.40;84.70
11423;DHT22;5768;51.476;7.210;2023-03-11T01:43:49;2.50;83.60
11423;DHT22;5768;51.476;7.210;2023-03-11T01:48:57;2.60;85.70
11423;DHT22;5768;51.476;7.210;2023-03-11T01:54:04;2.60;37.70
11423;DHT22;5768;51.476;7.210;2023-03-11T01:59:12;2.30;84.80
11423;DHT22;5768;51.476;7.210;2023-03-11T02:04:19;2.30;86.30
11423;DHT22;5768;51.476;7.210;2023-03-11T02:09:22;2.20;86.70
11423;DHT22;5768;51.476;7.210;2023-03-11T02:14:28;2.30;87.00
11423;DHT22;5768;51.476;7.210;2023-03-11T02:19:37;2.20;95.40
11423;DHT22;5768;51.476;7.210;2023-03-11T02:24:56;2.30;85.00
11423;DHT22;5768;51.476;7.210;2023-03-11T02:30:08;2.10;83.00
11423;DHT22;5768;51.476;7.210;2023-03-11T02:35:12;2.20;84.80
11423;DHT22;5768;51.476;7.210;2023-03-11T02:40:49;1.90;87.10
11423;DHT22;5768;51.476;7.210;2023-03-11T02:45:56;1.90;88.10
11423;DHT22;5768;51.476;7.210;2023-03-11T02:50:59;1.80;90.90
11423;DHT22;5768;51.476;7.210;2023-03-11T02:56:03;1.80;91.20
11423;DHT22;5768;51.476;7.210;2023-03-11T03:01:07;1.80;90.20
11423;DHT22;5768;51.476;7.210;2023-03-11T03:06:10;1.70;93.30
11423;DHT22;5768;51.476;7.210;2023-03-11T03:11:12;1.60;94.80
11423;DHT22;5768;51.476;7.210;2023-03-11T03:16:17;1.80;96.50
11423;DHT22;5768;51.476;7.210;2023-03-11T03:21:19;1.90;91.20
11423;DHT22;5768;51.476;7.210;2023-03-11T03:26:21;1.80;88.70
11423;DHT22;5768;51.476;7.210;2023-03-11T03:31:25;1.90;89.10
11423;DHT22;5768;51.476;7.210;2023-03-11T03:36:27;1.80;86.80
11423;DHT22;5768;51.476;7.210;2023-03-11T03:41:29;1.90;86.70
11423;DHT22;5768;51.476;7.210;2023-03-11T03:46:32;2.10;86.20
11423;DHT22;5768;51.476;7.210;2023-03-11T03:51:34;2.20;31.20
11423;DHT22;5768;51.476;7.210;2023-03-11T03:56:36;2.30;29.60
11423;DHT22;5768;51.476;7.210;2023-03-11T04:01:40;2.20;28.60
11423;DHT22;5768;51.476;7.210;2023-03-11T04:06:42;2.20;31.10
11423;DHT22;5768;51.476;7.210;2023-03-11T04:11:44;2.20;28.10
11423;DHT22;5768;51.476;7.210;2023-03-11T04:16:47;2.30;26.30
11423;DHT22;5768;51.476;7.210;2023-03-11T04:21:50;2.40;26.00
11423;DHT22;5768;51.476;7.210;2023-03-11T04:26:52;2.40;25.20
11423;DHT22;5768;51.476;7.210;2023-03-11T04:31:55;2.50;25.20
11423;DHT22;5768;51.476;7.210;2023-03-11T04:36:57;2.50;23.50
11423;DHT22;5768;51.476;7.210;2023-03-11T04:42:00;2.50;24.20
11423;DHT22;5768;51.476;7.210;2023-03-11T04:47:03;2.30;23.10
11423;DHT22;5768;51.476;7.210;2023-03-11T04:52:05;2.20;39.40
11423;DHT22;5768;51.476;7.210;2023-03-11T04:57:07;2.40;24.00
11423;DHT22;5768;51.476;7.210;2023-03-11T05:02:11;2.40;23.50
11423;DHT22;5768;51.476;7.210;2023-03-11T05:07:13;2.40;23.20
11423;DHT22;5768;51.476;7.210;2023-03-11T05:12:15;2.40;23.30
11423;DHT22;5768;51.476;7.210;2023-03-11T05:17:18;2.30;23.30
11423;DHT22;5768;51.476;7.210;2023-03-11T05:22:21;2.20;23.50
11423;DHT22;5768;51.476;7.210;2023-03-11T05:27:23;2.20;23.70
11423;DHT22;5768;51.476;7.210;2023-03-11T05:32:26;2.10;24.50
11423;DHT22;5768;51.476;7.210;2023-03-11T05:37:30;2.10;23.30
11423;DHT22;5768;51.476;7.210;2023-03-11T05:42:32;2.20;23.20
11423;DHT22;5768;51.476;7.210;2023-03-11T05:47:36;2.10;23.00
11423;DHT22;5768;51.476;7.210;2023-03-11T05:52:38;2.20;23.30
11423;DHT22;5768;51.476;7.210;2023-03-11T05:57:40;2.40;24.80
11423;DHT22;5768;51.476;7.210;2023-03-11T06:02:43;2.40;22.30
11423;DHT22;5768;51.476;7.210;2023-03-11T06:07:46;2.40;22.00
11423;DHT22;5768;51.476;7.210;2023-03-11T06:12:48;2.40;21.60
11423;DHT22;5768;51.476;7.210;2023-03-11T06:17:51;2.70;20.90
11423;DHT22;5768;51.476;7.210;2023-03-11T06:22:53;2.80;20.60
11423;DHT22;5768;51.476;7.210;2023-03-11T06:27:55;2.80;27.40
11423;DHT22;5768;51.476;7.210;2023-03-11T06:32:59;2.70;20.00
11423;DHT22;5768;51.476;7.210;2023-03-11T06:38:01;2.60;20.00
11423;DHT22;5768;51.476;7.210;2023-03-11T06:43:03;2.80;20.00
11423;DHT22;5768;51.476;7.210;2023-03-11T06:48:06;2.80;20.20
11423;DHT22;5768;51.476;7.210;2023-03-11T06:53:08;3.00;20.00
11423;DHT22;5768;51.476;7.210;2023-03-11T06:58:10;3.20;19.70
11423;DHT22;5768;51.476;7.210;2023-03-11T07:03:14;3.20;19.50
11423;DHT22;5768;51.476;7.210;2023-03-11T07:08:16;3.10;19.10
11423;DHT22;5768;51.476;7.210;2023-03-11T07:13:18;3.20;19.10
11423;DHT22;5768;51.476;7.210;2023-03-11T07:18:21;3.30;18.90
11423;DHT22;5768;51.476;7.210;2023-03-11T07:23:24;3.20;19.00
11423;DHT22;5768;51.476;7.210;2023-03-11T07:28:26;3.00;18.90
11423;DHT22;5768;51.476;7.210;2023-03-11T07:33:30;3.10;18.60
11423;DHT22;5768;51.476;7.210;2023-03-11T07:38:32;3.20;18.40
11423;DHT22;5768;51.476;7.210;2023-03-11T07:43:35;3.20;18.50
11423;DHT22;5768;51.476;7.210;2023-03-11T07:48:39;3.40;18.60
11423;DHT22;5768;51.476;7.210;2023-03-11T07:53:41;3.60;19.00
11423;DHT22;5768;51.476;7.210;2023-03-11T07:58:44;3.60;18.70
11423;DHT22;5768;51.476;7.210;2023-03-11T08:03:49;3.70;17.60
11423;DHT22;5768;51.476;7.210;2023-03-11T08:08:56;3.50;17.70
11423;DHT22;5768;51.476;7.210;2023-03-11T08:13:59;3.80;17.60
11423;DHT22;5768;51.476;7.210;2023-03-11T08:19:02;3.90;16.70
11423;DHT22;5768;51.476;7.210;2023-03-11T08:24:05;4.10;16.50
11423;DHT22;5768;51.476;7.210;2023-03-11T08:29:08;4.30;16.70
11423;DHT22;5768;51.476;7.210;2023-03-11T08:34:12;4.50;15.70
11423;DHT22;5768;51.476;7.210;2023-03-11T08:39:15;4.70;15.50
11423;DHT22;5768;51.476;7.210;2023-03-11T08:44:17;4.80;15.50
11423;DHT22;5768;51.476;7.210;2023-03-11T08:49:21;4.80;15.30
11423;DHT22;5768;51.476;7.210;2023-03-11T08:54:22;4.90;14.60
11423;DHT22;5768;51.476;7.210;2023-03-11T08:59:25;5.10;14.20
11423;DHT22;5768;51.476;7.210;2023-03-11T09:04:28;4.80;13.50
11423;DHT22;5768;51.476;7.210;2023-03-11T09:09:31;4.90;13.80
11423;DHT22;5768;51.476;7.210;2023-03-11T09:14:33;5.20;13.40
11423;DHT22;5768;51.476;7.210;2023-03-11T09:19:38;5.40;13.20
11423;DHT22;5768;51.476;7.210;2023-03-11T09:24:40;5.70;12.70
11423;DHT22;5768;51.476;7.210;2023-03-11T09:29:43;5.40;12.60
11423;DHT22;5768;51.476;7.210;2023-03-11T09:34:46;5.60;12.70
11423;DHT22;5768;51.476;7.210;2023-03-11T09:39:48;6.10;12.60
11423;DHT22;5768;51.476;7.210;2023-03-11T09:44:55;6.50;11.60
11423;DHT22;5768;51.476;7.210;2023-03-11T09:50:21;6.30;10.90
11423;DHT22;5768;51.476;7.210;2023-03-11T09:55:33;6.30;10.90
11423;DHT22;5768;51.476;7.210;2023-03-11T10:00:42;6.70;11.20
11423;DHT22;5768;51.476;7.210;2023-03-11T10:05:47;7.10;11.20
11423;DHT22;5768;51.476;7.210;2023-03-11T10:10:59;6.60;10.70
11423;DHT22;5768;51.476;7.210;2023-03-11T10:16:17;5.80;10.90
11423;DHT22;5768;51.476;7.210;2023-03-11T10:21:36;5.90;11.20
11423;DHT22;5768;51.476;7.210;2023-03-11T10:26:47;6.60;11.10
11423;DHT22;5768;51.476;7.210;2023-03-11T10:31:56;6.60;10.80
11423;DHT22;5768;51.476;7.210;2023-03-11T10:37:13;7.10;11.00
11423;DHT22;5768;51.476;7.210;2023-03-11T10:42:21;7.20;10.80
11423;DHT22;5768;51.476;7.210;2023-03-11T10:47:28;7.40;10.60
11423;DHT22;5768;51.476;7.210;2023-03-11T10:52:40;7.50;10.80
11423;DHT22;5768;51.476;7.210;2023-03-11T10:57:44;7.50;10.60
11423;DHT22;5768;51.476;7.210;2023-03-11T11:02:50;7.80;11.10
11423;DHT22;5768;51.476;7.210;2023-03-11T11:08:07;7.30;10.60
11423;DHT22;5768;51.476;7.210;2023-03-11T11:13:19;7.20;10.80
11423;DHT22;5768;51.476;7.210;2023-03-11T11:18:25;7.70;10.80
11423;DHT22;5768;51.476;7.210;2023-03-11T11:23:37;8.10;10.40
11423;DHT22;5768;51.476;7.210;2023-03-11T11:28:42;8.50;10.20
11423;DHT22;5768;51.476;7.210;2023-03-11T11:33:49;9.20;10.40
11423;DHT22;5768;51.476;7.210;2023-03-11T11:38:54;9.70;10.20
11423;DHT22;5768;51.476;7.210;2023-03-11T11:44:00;10.00;10.00
11423;DHT22;5768;51.476;7.210;2023-03-11T11:49:12;9.00;9.90
11423;DHT22;5768;51.476;7.210;2023-03-11T11:54:25;9.00;10.00
11423;DHT22;5768;51.476;7.210;2023-03-11T11:59:31;8.30;9.80
11423;DHT22;5768;51.476;7.210;2023-03-11T12:04:47;8.40;10.10
11423;DHT22;5768;51.476;7.210;2023-03-11T12:10:02;8.90;9.60
11423;DHT22;5768;51.476;7.210;2023-03-11T12:15:19;9.30;9.70
11423;DHT22;5768;51.476;7.210;2023-03-11T12:20:31;9.60;9.50
11423;DHT22;5768;51.476;7.210;2023-03-11T12:25:52;9.90;9.10
11423;DHT22;5768;51.476;7.210;2023-03-11T12:31:06;10.00;9.10
11423;DHT22;5768;51.476;7.210;2023-03-11T12:36:24;9.90;9.30
11423;DHT22;5768;51.476;7.210;2023-03-11T12:41:32;10.10;9.10
11423;DHT22;5768;51.476;7.210;2023-03-11T12:47:20;9.50;9.40
11423;DHT22;5768;51.476;7.210;2023-03-11T12:52:29;9.80;9.00
11423;DHT22;5768;51.476;7.210;2023-03-11T12:57:48;9.70;9.30
11423;DHT22;5768;51.476;7.210;2023-03-11T13:03:30;9.70;9.30
11423;DHT22;5768;51.476;7.210;2023-03-11T13:08:44;11.30;9.30
11423;DHT22;5768;51.476;7.210;2023-03-11T13:13:50;10.70;9.00
11423;DHT22;5768;51.476;7.210;2023-03-11T13:18:52;9.90;9.20
11423;DHT22;5768;51.476;7.210;2023-03-11T13:24:45;11.60;9.00
11423;DHT22;5768;51.476;7.210;2023-03-11T13:29:55;12.00;9.00
11423;DHT22;5768;51.476;7.210;2023-03-11T13:35:22;10.40;8.80
11423;DHT22;5768;51.476;7.210;2023-03-11T13:40:37;11.80;8.80
11423;DHT22;5768;51.476;7.210;2023-03-11T13:45:47;12.20;8.60
11423;DHT22;5768;51.476;7.210;2023-03-11T13:50:56;12.50;8.70
11423;DHT22;5768;51.476;7.210;2023-03-11T13:56:03;12.80;8.30
11423;DHT22;5768;51.476;7.210;2023-03-11T14:01:14;12.10;8.40
11423;DHT22;5768;51.476;7.210;2023-03-11T14:06:18;12.10;8.50
11423;DHT22;5768;51.476;7.210;2023-03-11T14:11:26;14.80;8.20
11423;DHT22;5768;51.476;7.210;2023-03-11T14:16:32;16.40;7.90
11423;DHT22;5768;51.476;7.210;2023-03-11T14:21:44;15.90;7.60
11423;DHT22;5768;51.476;7.210;2023-03-11T14:26:49;16.40;7.40
11423;DHT22;5768;51.476;7.210;2023-03-11T14:31:55;17.40;7.20
11423;DHT22;5768;51.476;7.210;2023-03-11T14:36:58;17.90;7.10
11423;DHT22;5768;51.476;7.210;2023-03-11T14:42:10;17.00;7.10
11423;DHT22;5768;51.476;7.210;2023-03-11T14:47:28;16.10;7.20
11423;DHT22;5768;51.476;7.210;2023-03-11T14:52:40;14.90;7.60
11423;DHT22;5768;51.476;7.210;2023-03-11T14:57:50;16.70;7.20
11423;DHT22;5768;51.476;7.210;2023-03-11T15:03:03;16.60;6.90
11423;DHT22;5768;51.476;7.210;2023-03-11T15:08:16;15.20;7.10
11423;DHT22;5768;51.476;7.210;2023-03-11T15:13:23;15.50;7.20
11423;DHT22;5768;51.476;7.210;2023-03-11T15:18:29;16.70;7.10
11423;DHT22;5768;51.476;7.210;2023-03-11T15:23:34;16.80;7.00
11423;DHT22;5768;51.476;7.210;2023-03-11T15:28:39;17.00;7.00
11423;DHT22;5768;51.476;7.210;2023-03-11T15:33:42;17.00;7.00
11423;DHT22;5768;51.476;7.210;2023-03-11T15:38:45;16.40;6.90
11423;DHT22;5768;51.476;7.210;2023-03-11T15:43:49;15.10;7.00
11423;DHT22;5768;51.476;7.210;2023-03-11T15:48:51;13.70;7.40
11423;DHT22;5768;51.476;7.210;2023-03-11T15:53:53;12.40;7.50
11423;DHT22;5768;51.476;7.210;2023-03-11T15:58:56;12.50;7.80
11423;DHT22;5768;51.476;7.210;2023-03-11T16:03:58;12.30;7.70
11423;DHT22;5768;51.476;7.210;2023-03-11T16:09:00;12.70;7.80
11423;DHT22;5768;51.476;7.210;2023-03-11T16:14:04;13.20;7.60
11423;DHT22;5768;51.476;7.210;2023-03-11T16:19:07;13.60;7.40
11423;DHT22;5768;51.476;7.210;2023-03-11T16:24:15;13.30;7.40
11423;DHT22;5768;51.476;7.210;2023-03-11T16:29:21;12.70;7.50
11423;DHT22;5768;51.476;7.210;2023-03-11T16:34:23;12.00;7.90
11423;DHT22;5768;51.476;7.210;2023-03-11T16:39:26;11.30;7.90
11423;DHT22;5768;51.476;7.210;2023-03-11T16:44:29;11.10;8.10
11423;DHT22;5768;51.476;7.210;2023-03-11T16:49:31;11.30;8.10
11423;DHT22;5768;51.476;7.210;2023-03-11T16:54:33;11.20;8.30
11423;DHT22;5768;51.476;7.210;2023-03-11T16:59:37;10.60;8.30
11423;DHT22;5768;51.476;7.210;2023-03-11T17:04:39;10.20;8.30
11423;DHT22;5768;51.476;7.210;2023-03-11T17:09:42;9.80;8.40
11423;DHT22;5768;51.476;7.210;2023-03-11T17:14:45;9.90;8.80
11423;DHT22;5768;51.476;7.210;2023-03-11T17:19:47;9.00;8.70
11423;DHT22;5768;51.476;7.210;2023-03-11T17:24:49;8.40;8.90
11423;DHT22;5768;51.476;7.210;2023-03-11T17:29:53;8.20;9.10
11423;DHT22;5768;51.476;7.210;2023-03-11T17:34:55;7.60;9.20
11423;DHT22;5768;51.476;7.210;2023-03-11T17:39:57;7.40;9.30
11423;DHT22;5768;51.476;7.210;2023-03-11T17:45:01;7.20;9.40
11423;DHT22;5768;51.476;7.210;2023-03-11T17:50:04;6.80;9.40
11423;DHT22;5768;51.476;7.210;2023-03-11T17:55:08;6.80;9.80
11423;DHT22;5768;51.476;7.210;2023-03-11T18:00:13;6.90;9.80
11423;DHT22;5768;51.476;7.210;2023-03-11T18:05:15;6.90;9.80
11423;DHT22;5768;51.476;7.210;2023-03-11T18:10:18;7.10;9.70
11423;DHT22;5768;51.476;7.210;2023-03-11T18:15:22;7.10;9.80
11423;DHT22;5768;51.476;7.210;2023-03-11T18:20:24;7.10;9.70
11423;DHT22;5768;51.476;7.210;2023-03-11T18:25:26;7.20;9.90
11423;DHT22;5768;51.476;7.210;2023-03-11T18:30:30;6.90;9.90
11423;DHT22;5768;51.476;7.210;2023-03-11T18:35:32;6.90;10.00
11423;DHT22;5768;51.476;7.210;2023-03-11T18:40:34;6.70;10.20
11423;DHT22;5768;51.476;7.210;2023-03-11T18:45:39;6.50;10.20
11423;DHT22;5768;51.476;7.210;2023-03-11T18:50:41;6.40;10.30
11423;DHT22;5768;51.476;7.210;2023-03-11T18:55:43;6.30;10.50
11423;DHT22;5768;51.476;7.210;2023-03-11T19:00:47;6.10;10.60
11423;DHT22;5768;51.476;7.210;2023-03-11T19:05:49;5.90;10.60
11423;DHT22;5768;51.476;7.210;2023-03-11T19:10:52;5.90;10.80
11423;DHT22;5768;51.476;7.210;2023-03-11T19:15:58;5.70;10.70
11423;DHT22;5768;51.476;7.210;2023-03-11T19:21:02;5.70;11.00
11423;DHT22;5768;51.476;7.210;2023-03-11T19:26:06;5.70;11.30
11423;DHT22;5768;51.476;7.210;2023-03-11T19:31:10;5.70;11.40
11423;DHT22;5768;51.476;7.210;2023-03-11T19:36:12;5.70;11.50
11423;DHT22;5768;51.476;7.210;2023-03-11T19:41:15;5.70;11.50
11423;DHT22;5768;51.476;7.210;2023-03-11T19:46:21;5.40;11.60
11423;DHT22;5768;51.476;7.210;2023-03-11T19:51:24;5.60;11.70
11423;DHT22;5768;51.476;7.210;2023-03-11T19:56:26;5.60;11.60
11423;DHT22;5768;51.476;7.210;2023-03-11T20:01:29;5.50;11.60
11423;DHT22;5768;51.476;7.210;2023-03-11T20:06:31;5.50;11.70
11423;DHT22;5768;51.476;7.210;2023-03-11T20:11:36;5.50;11.80
11423;DHT22;5768;51.476;7.210;2023-03-11T20:16:41;5.60;11.80
11423;DHT22;5768;51.476;7.210;2023-03-11T20:21:43;5.70;11.90
11423;DHT22;5768;51.476;7.210;2023-03-11T20:26:45;5.70;11.90
11423;DHT22;5768;51.476;7.210;2023-03-11T20:31:49;5.80;12.10
11423;DHT22;5768;51.476;7.210;2023-03-11T20:36:51;6.00;11.40
11423;DHT22;5768;51.476;7.210;2023-03-11T20:41:53;5.80;11.70
11423;DHT22;5768;51.476;7.210;2023-03-11T20:46:58;5.70;11.60
11423;DHT22;5768;51.476;7.210;2023-03-11T20:52:00;5.80;11.60
11423;DHT22;5768;51.476;7.210;2023-03-11T20:57:03;5.90;11.40
11423;DHT22;5768;51.476;7.210;2023-03-11T21:02:08;6.00;11.40
11423;DHT22;5768;51.476;7.210;2023-03-11T21:07:12;5.80;11.40
11423;DHT22;5768;51.476;7.210;2023-03-11T21:12:14;5.90;11.50
11423;DHT22;5768;51.476;7.210;2023-03-11T21:17:17;5.60;11.60
11423;DHT22;5768;51.476;7.210;2023-03-11T21:22:20;5.60;11.70
11423;DHT22;5768;51.476;7.210;2023-03-11T21:27:22;5.50;11.80
11423;DHT22;5768;51.476;7.210;2023-03-11T21:32:27;5.50;12.00
11423;DHT22;5768;51.476;7.210;2023-03-11T21:37:31;5.30;12.00
11423;DHT22;5768;51.476;7.210;2023-03-11T21:42:36;5.30;12.00
11423;DHT22;5768;51.476;7.210;2023-03-11T21:47:39;5.20;12.10
11423;DHT22;5768;51.476;7.210;2023-03-11T21:52:41;5.00;12.20
11423;DHT22;5768;51.476;7.210;2023-03-11T21:57:43;5.00;12.10
11423;DHT22;5768;51.476;7.210;2023-03-11T22:02:47;5.10;12.00
11423;DHT22;5768;51.476;7.210;2023-03-11T22:07:49;4.70;12.00
11423;DHT22;5768;51.476;7.210;2023-03-11T22:12:51;5.00;12.00
11423;DHT22;5768;51.476;7.210;2023-03-11T22:17:54;4.90;12.20
11423;DHT22;5768;51.476;7.210;2023-03-11T22:22:56;4.90;12.10
11423;DHT22;5768;51.476;7.210;2023-03-11T22:27:58;4.90;12.10
11423;DHT22;5768;51.476;7.210;2023-03-11T22:33:02;4.90;12.10
11423;DHT22;5768;51.476;7.210;2023-03-11T22:38:04;5.00;12.10
11423;DHT22;5768;51.476;7.210;2023-03-11T22:43:06;5.20;11.90
11423;DHT22;5768;51.476;7.210;2023-03-11T22:48:10;5.10;12.00
11423;DHT22;5768;51.476;7.210;2023-03-11T22:53:12;5.20;11.90
11423;DHT22;5768;51.476;7.210;2023-03-11T22:58:15;5.20;11.90
11423;DHT22;5768;51.476;7.210;2023-03-11T23:03:18;5.20;12.10
11423;DHT22;5768;51.476;7.210;2023-03-11T23:08:20;5.30;12.10
11423;DHT22;5768;51.476;7.210;2023-03-11T23:13:22;5.40;12.10
11423;DHT22;5768;51.476;7.210;2023-03-11T23:18:27;5.40;12.00
11423;DHT22;5768;51.476;7.210;2023-03-11T23:23:30;5.30;11.90
11423;DHT22;5768;51.476;7.210;2023-03-11T23:28:32;5.40;11.90
11423;DHT22;5768;51.476;7.210;2023-03-11T23:33:42;5.40;11.90
11423;DHT22;5768;51.476;7.210;2023-03-11T23:38:45;5.60;12.00
11423;DHT22;5768;51.476;7.210;2023-03-11T23:43:47;5.40;12.00
11423;DHT22;5768;51.476;7.210;2023-03-11T23:48:51;5.40;12.00
11423;DHT22;5768;51.476;7.210;2023-03-11T23:53:53;5.40;11.90
11423;DHT22;5768;51.476;7.210;2023-03-11T23:58:55;5.40;11.90
